Terminal Aerodrome Forecast
Issued by NWS Cleveland, OH

Home | Current Version | Previous Version | Text Only | Print | Product List | Glossary On
Versions: 1 2 3 4 5 6 7 8 9 10 11 12 13 14 15 16 17
088
FTUS41 KCLE 061729
TAFCAK
TAF
KCAK 061729Z 0618/0718 36012G20KT P6SM SCT040
     FM070000 35006KT P6SM FEW250
     FM070300 VRB03KT P6SM SCT250
     FM071400 20006KT P6SM OVC250=

USA.gov is the U.S. government's official web portal to all federal, state and local government web resources and services.